DAL853 KSEA-PANC
Flight info
| Callsign | DAL853 |
|---|---|
| Flight time | 3h 21m |
| Altitude | 34000 |
| Route | BANGR9 ARRIE FOCHE PRYCE BKA/N0453F360 LAIRE JOH PTERS3 |
| Aircraft | A321/M-SDE3FGHIRWY/LB1 |
Departure
| Time | 2026-05-06 23:08 |
|---|---|
| Airport | Seattle–Tacoma International Airport (KSEA) |
Arrival
| Time | 2026-05-07 02:29 |
|---|---|
| Airport | Ted Stevens Anchorage International Airport (PANC) |
| Time | Latitude | Longitude | Altitude | Speed | Heading |
|---|---|---|---|---|---|
| 2026-05-06 22:59 | 47.44142 | -122.30636 | 387 ft | 9 kts | 1° |
| 2026-05-06 23:00 | 47.44205 | -122.30633 | 388 ft | 13 kts | 1° |
| 2026-05-06 23:00 | 47.44300 | -122.30631 | 392 ft | 12 kts | 0° |
| 2026-05-06 23:00 | 47.44369 | -122.30630 | 390 ft | 8 kts | 0° |
| 2026-05-06 23:00 | 47.44454 | -122.30631 | 396 ft | 15 kts | 360° |
| 2026-05-06 23:01 | 47.44554 | -122.30631 | 397 ft | 17 kts | 0° |
| 2026-05-06 23:01 | 47.44674 | -122.30629 | 402 ft | 16 kts | 0° |
| 2026-05-06 23:01 | 47.44772 | -122.30629 | 404 ft | 12 kts | 360° |
| 2026-05-06 23:01 | 47.44845 | -122.30628 | 406 ft | 9 kts | 1° |
| 2026-05-06 23:02 | 47.44950 | -122.30627 | 410 ft | 23 kts | 0° |
| 2026-05-06 23:02 | 47.45106 | -122.30625 | 415 ft | 21 kts | 0° |
| 2026-05-06 23:02 | 47.45239 | -122.30625 | 415 ft | 17 kts | 0° |
| 2026-05-06 23:02 | 47.45361 | -122.30622 | 420 ft | 17 kts | 0° |
| 2026-05-06 23:03 | 47.45462 | -122.30622 | 421 ft | 14 kts | 360° |
| 2026-05-06 23:03 | 47.45588 | -122.30622 | 430 ft | 19 kts | 0° |
| 2026-05-06 23:03 | 47.45709 | -122.30620 | 424 ft | 16 kts | 1° |
| 2026-05-06 23:03 | 47.45813 | -122.30619 | 432 ft | 14 kts | 0° |
| 2026-05-06 23:04 | 47.45909 | -122.30619 | 433 ft | 18 kts | 0° |
| 2026-05-06 23:04 | 47.46060 | -122.30617 | 434 ft | 22 kts | 360° |
| 2026-05-06 23:04 | 47.46208 | -122.30616 | 434 ft | 21 kts | 0° |
| 2026-05-06 23:04 | 47.46328 | -122.30615 | 437 ft | 11 kts | 360° |
| 2026-05-06 23:05 | 47.46384 | -122.30626 | 434 ft | 4 kts | 3° |
| 2026-05-06 23:05 | 47.46386 | -122.30626 | 438 ft | 0 kts | 357° |
| 2026-05-06 23:05 | 47.46390 | -122.30637 | 436 ft | 0 kts | 308° |
| 2026-05-06 23:06 | 47.46382 | -122.30691 | 436 ft | 12 kts | 252° |
| 2026-05-06 23:06 | 47.46354 | -122.30780 | 439 ft | 7 kts | 192° |
| 2026-05-06 23:06 | 47.46302 | -122.30779 | 431 ft | 8 kts | 181° |
| 2026-05-06 23:06 | 47.46295 | -122.30779 | 435 ft | 0 kts | 181° |
| 2026-05-06 23:07 | 47.46258 | -122.30781 | 430 ft | 30 kts | 182° |
| 2026-05-06 23:07 | 47.45804 | -122.30775 | 426 ft | 98 kts | 178° |
| 2026-05-06 23:07 | 47.44951 | -122.30787 | 409 ft | 148 kts | 181° |
| 2026-05-06 23:07 | 47.43789 | -122.30857 | 533 ft | 177 kts | 181° |
| 2026-05-06 23:08 | 47.42545 | -122.30805 | 1092 ft | 179 kts | 181° |
| 2026-05-06 23:08 | 47.41304 | -122.30809 | 1778 ft | 177 kts | 182° |
| 2026-05-06 23:08 | 47.40072 | -122.30837 | 2300 ft | 186 kts | 184° |
| 2026-05-06 23:08 | 47.38707 | -122.30881 | 2560 ft | 207 kts | 184° |
| 2026-05-06 23:09 | 47.37190 | -122.30946 | 2747 ft | 229 kts | 184° |
| 2026-05-06 23:09 | 47.35519 | -122.31017 | 3170 ft | 247 kts | 184° |
| 2026-05-06 23:09 | 47.33786 | -122.31136 | 3913 ft | 251 kts | 191° |
| 2026-05-06 23:09 | 47.32227 | -122.32230 | 4634 ft | 253 kts | 226° |
| 2026-05-06 23:10 | 47.31356 | -122.34467 | 5351 ft | 256 kts | 253° |
| 2026-05-06 23:10 | 47.30974 | -122.37035 | 6100 ft | 258 kts | 263° |
| 2026-05-06 23:10 | 47.30765 | -122.39682 | 6748 ft | 263 kts | 265° |
| 2026-05-06 23:10 | 47.30708 | -122.42373 | 6942 ft | 262 kts | 277° |
| 2026-05-06 23:11 | 47.31150 | -122.44962 | 6991 ft | 262 kts | 291° |
| 2026-05-06 23:11 | 47.31985 | -122.47351 | 7000 ft | 262 kts | 298° |
| 2026-05-06 23:11 | 47.32871 | -122.49701 | 7001 ft | 262 kts | 297° |
| 2026-05-06 23:11 | 47.33864 | -122.51917 | 7001 ft | 263 kts | 309° |
| 2026-05-06 23:12 | 47.35203 | -122.53784 | 7056 ft | 267 kts | 316° |
| 2026-05-06 23:12 | 47.36612 | -122.55593 | 7760 ft | 267 kts | 316° |
| 2026-05-06 23:12 | 47.38020 | -122.57397 | 8513 ft | 269 kts | 316° |
| 2026-05-06 23:12 | 47.39441 | -122.59222 | 9245 ft | 271 kts | 316° |
| 2026-05-06 23:13 | 47.40867 | -122.61057 | 9971 ft | 273 kts | 316° |
| 2026-05-06 23:13 | 47.42335 | -122.62953 | 10324 ft | 290 kts | 316° |
| 2026-05-06 23:13 | 47.43905 | -122.64987 | 10452 ft | 312 kts | 316° |
| 2026-05-06 23:13 | 47.45573 | -122.67142 | 10574 ft | 332 kts | 316° |
| 2026-05-06 23:14 | 47.47370 | -122.69462 | 10693 ft | 352 kts | 316° |
| 2026-05-06 23:14 | 47.49243 | -122.71880 | 11038 ft | 362 kts | 316° |
| 2026-05-06 23:14 | 47.51155 | -122.74349 | 11602 ft | 366 kts | 316° |
| 2026-05-06 23:14 | 47.53085 | -122.76838 | 12213 ft | 369 kts | 316° |
| 2026-05-06 23:15 | 47.55026 | -122.79340 | 12793 ft | 371 kts | 316° |
| 2026-05-06 23:15 | 47.56978 | -122.81862 | 13396 ft | 374 kts | 316° |
| 2026-05-06 23:15 | 47.58940 | -122.84405 | 13979 ft | 376 kts | 316° |
| 2026-05-06 23:15 | 47.60891 | -122.86938 | 14493 ft | 378 kts | 315° |
| 2026-05-06 23:16 | 47.62876 | -122.89519 | 14982 ft | 381 kts | 315° |
| 2026-05-06 23:16 | 47.64688 | -122.92377 | 15442 ft | 380 kts | 305° |
| 2026-05-06 23:16 | 47.66159 | -122.95633 | 15938 ft | 381 kts | 300° |
| 2026-05-06 23:16 | 47.67567 | -122.98978 | 16454 ft | 382 kts | 300° |
| 2026-05-06 23:17 | 47.68986 | -123.02338 | 16954 ft | 384 kts | 300° |
| 2026-05-06 23:17 | 47.70416 | -123.05713 | 17440 ft | 386 kts | 300° |
| 2026-05-06 23:17 | 47.71856 | -123.09106 | 17916 ft | 389 kts | 300° |
| 2026-05-06 23:17 | 47.73285 | -123.12481 | 18420 ft | 390 kts | 300° |
| 2026-05-06 23:18 | 47.74732 | -123.15915 | 18832 ft | 392 kts | 300° |
| 2026-05-06 23:18 | 47.76190 | -123.19378 | 19272 ft | 394 kts | 300° |
| 2026-05-06 23:18 | 47.77647 | -123.22842 | 19738 ft | 394 kts | 300° |
| 2026-05-06 23:18 | 47.79105 | -123.26309 | 20166 ft | 396 kts | 300° |
| 2026-05-06 23:19 | 47.80554 | -123.29755 | 20562 ft | 398 kts | 300° |
| 2026-05-06 23:19 | 47.82030 | -123.33270 | 20955 ft | 400 kts | 300° |
| 2026-05-06 23:19 | 47.83506 | -123.36800 | 21335 ft | 402 kts | 300° |
| 2026-05-06 23:19 | 47.84970 | -123.40310 | 21705 ft | 404 kts | 300° |
| 2026-05-06 23:20 | 47.86463 | -123.43878 | 22106 ft | 406 kts | 301° |
| 2026-05-06 23:20 | 47.88199 | -123.47234 | 22503 ft | 411 kts | 310° |
| 2026-05-06 23:20 | 47.90329 | -123.50129 | 22867 ft | 417 kts | 319° |
| 2026-05-06 23:20 | 47.92655 | -123.52654 | 23211 ft | 420 kts | 320° |
| 2026-05-06 23:21 | 47.95030 | -123.55222 | 23556 ft | 422 kts | 320° |
| 2026-05-06 23:21 | 47.97410 | -123.57797 | 23910 ft | 423 kts | 320° |
| 2026-05-06 23:21 | 47.99803 | -123.60394 | 24228 ft | 425 kts | 320° |
| 2026-05-06 23:21 | 48.02201 | -123.63006 | 24563 ft | 426 kts | 320° |
| 2026-05-06 23:22 | 48.04577 | -123.65603 | 24861 ft | 428 kts | 320° |
| 2026-05-06 23:22 | 48.06986 | -123.68240 | 25174 ft | 429 kts | 320° |
| 2026-05-06 23:22 | 48.09410 | -123.70895 | 25506 ft | 431 kts | 320° |
| 2026-05-06 23:22 | 48.11834 | -123.73550 | 25792 ft | 433 kts | 320° |
| 2026-05-06 23:23 | 48.14274 | -123.76226 | 26070 ft | 434 kts | 320° |
| 2026-05-06 23:23 | 48.16715 | -123.78903 | 26349 ft | 435 kts | 320° |
| 2026-05-06 23:23 | 48.19132 | -123.81552 | 26705 ft | 434 kts | 320° |
| 2026-05-06 23:23 | 48.21570 | -123.84228 | 27086 ft | 433 kts | 320° |
| 2026-05-06 23:24 | 48.24002 | -123.86905 | 27467 ft | 431 kts | 320° |
| 2026-05-06 23:24 | 48.26423 | -123.89577 | 27842 ft | 429 kts | 320° |
| 2026-05-06 23:24 | 48.28825 | -123.92231 | 28224 ft | 428 kts | 320° |
| 2026-05-06 23:24 | 48.31191 | -123.94849 | 28594 ft | 426 kts | 320° |
| 2026-05-06 23:25 | 48.33582 | -123.97494 | 28976 ft | 425 kts | 320° |
| 2026-05-06 23:25 | 48.35964 | -124.00131 | 29347 ft | 424 kts | 320° |
| 2026-05-06 23:25 | 48.38337 | -124.02764 | 29717 ft | 422 kts | 320° |
| 2026-05-06 23:25 | 48.40702 | -124.05392 | 30072 ft | 421 kts | 320° |
| 2026-05-06 23:26 | 48.43052 | -124.08010 | 30400 ft | 420 kts | 320° |
| 2026-05-06 23:26 | 48.45395 | -124.10620 | 30706 ft | 418 kts | 320° |
| 2026-05-06 23:26 | 48.47706 | -124.13195 | 31014 ft | 417 kts | 320° |
| 2026-05-06 23:26 | 48.50041 | -124.15798 | 31327 ft | 416 kts | 320° |
| 2026-05-06 23:27 | 48.52368 | -124.18398 | 31614 ft | 415 kts | 320° |
| 2026-05-06 23:27 | 48.54694 | -124.21000 | 31924 ft | 414 kts | 320° |
| 2026-05-06 23:27 | 48.57001 | -124.23587 | 32243 ft | 412 kts | 320° |
| 2026-05-06 23:27 | 48.59304 | -124.26169 | 32575 ft | 411 kts | 320° |
| 2026-05-06 23:28 | 48.61598 | -124.28738 | 32893 ft | 410 kts | 320° |
| 2026-05-06 23:28 | 48.63868 | -124.31282 | 33169 ft | 408 kts | 320° |
| 2026-05-06 23:28 | 48.66143 | -124.33845 | 33426 ft | 407 kts | 320° |
| 2026-05-06 23:28 | 48.68412 | -124.36405 | 33728 ft | 406 kts | 320° |
| 2026-05-06 23:29 | 48.70691 | -124.38973 | 34044 ft | 405 kts | 320° |
| 2026-05-06 23:29 | 48.72951 | -124.41524 | 34172 ft | 404 kts | 320° |
| 2026-05-06 23:29 | 48.75176 | -124.44040 | 34189 ft | 403 kts | 320° |
| 2026-05-06 23:30 | 48.79673 | -124.49131 | 34181 ft | 402 kts | 320° |
| 2026-05-06 23:30 | 48.84165 | -124.54235 | 34186 ft | 402 kts | 320° |
| 2026-05-06 23:31 | 48.88619 | -124.59309 | 34185 ft | 401 kts | 320° |
| 2026-05-06 23:31 | 48.93097 | -124.64402 | 34187 ft | 401 kts | 320° |
| 2026-05-06 23:32 | 48.97530 | -124.69458 | 34189 ft | 401 kts | 320° |
| 2026-05-06 23:32 | 49.02000 | -124.74570 | 34187 ft | 401 kts | 320° |
| 2026-05-06 23:33 | 49.06435 | -124.79673 | 34190 ft | 401 kts | 319° |
| 2026-05-06 23:33 | 49.10900 | -124.84791 | 34181 ft | 401 kts | 320° |
| 2026-05-06 23:34 | 49.15365 | -124.89895 | 34180 ft | 401 kts | 320° |
| 2026-05-06 23:34 | 49.19838 | -124.95016 | 34180 ft | 401 kts | 320° |
| 2026-05-06 23:35 | 49.24272 | -125.00111 | 34192 ft | 401 kts | 319° |
| 2026-05-06 23:35 | 49.28728 | -125.05256 | 34188 ft | 400 kts | 319° |
| 2026-05-06 23:36 | 49.33174 | -125.10400 | 34184 ft | 400 kts | 319° |
| 2026-05-06 23:36 | 49.37587 | -125.15506 | 34181 ft | 399 kts | 319° |
| 2026-05-06 23:37 | 49.42025 | -125.20665 | 34174 ft | 399 kts | 319° |
| 2026-05-06 23:37 | 49.46454 | -125.25816 | 34171 ft | 399 kts | 319° |
| 2026-05-06 23:38 | 49.50880 | -125.30988 | 34165 ft | 399 kts | 319° |
| 2026-05-06 23:38 | 49.55286 | -125.36136 | 34161 ft | 399 kts | 319° |
| 2026-05-06 23:39 | 49.59718 | -125.41318 | 34186 ft | 398 kts | 319° |
| 2026-05-06 23:39 | 49.64108 | -125.46475 | 34188 ft | 398 kts | 319° |
| 2026-05-06 23:40 | 49.68511 | -125.51658 | 34175 ft | 397 kts | 319° |
| 2026-05-06 23:40 | 49.72881 | -125.56813 | 34170 ft | 397 kts | 319° |
| 2026-05-06 23:41 | 49.77272 | -125.62010 | 34164 ft | 396 kts | 318° |
| 2026-05-06 23:41 | 49.81617 | -125.67158 | 34171 ft | 396 kts | 318° |
| 2026-05-06 23:42 | 49.85990 | -125.72353 | 34167 ft | 396 kts | 318° |
| 2026-05-06 23:42 | 49.90367 | -125.77572 | 34154 ft | 395 kts | 318° |
| 2026-05-06 23:43 | 49.94690 | -125.82734 | 34152 ft | 395 kts | 318° |
| 2026-05-06 23:43 | 49.99063 | -125.87977 | 34157 ft | 396 kts | 318° |
| 2026-05-06 23:44 | 50.03430 | -125.93211 | 34177 ft | 396 kts | 318° |
| 2026-05-06 23:44 | 50.07761 | -125.98413 | 34181 ft | 395 kts | 318° |
| 2026-05-06 23:45 | 50.12117 | -126.03673 | 34181 ft | 396 kts | 317° |
| 2026-05-06 23:45 | 50.15734 | -126.08053 | 34177 ft | 395 kts | 318° |
| 2026-05-06 23:46 | 50.20102 | -126.13349 | 34182 ft | 396 kts | 318° |
| 2026-05-06 23:46 | 50.24434 | -126.18595 | 34200 ft | 395 kts | 317° |
| 2026-05-06 23:47 | 50.28755 | -126.23839 | 34201 ft | 395 kts | 317° |
| 2026-05-06 23:47 | 50.33095 | -126.29131 | 34204 ft | 395 kts | 317° |
| 2026-05-06 23:48 | 50.37431 | -126.34426 | 34192 ft | 394 kts | 317° |
| 2026-05-06 23:48 | 50.41743 | -126.39710 | 34232 ft | 395 kts | 317° |
| 2026-05-06 23:49 | 50.46091 | -126.45048 | 34245 ft | 395 kts | 317° |
| 2026-05-06 23:49 | 50.50388 | -126.50344 | 34248 ft | 395 kts | 317° |
| 2026-05-06 23:50 | 50.54708 | -126.55675 | 34251 ft | 395 kts | 317° |
| 2026-05-06 23:50 | 50.61190 | -126.63693 | 34269 ft | 394 kts | 317° |
| 2026-05-06 23:51 | 50.65482 | -126.69020 | 34269 ft | 394 kts | 317° |
| 2026-05-06 23:51 | 50.69782 | -126.74371 | 34272 ft | 394 kts | 317° |
| 2026-05-06 23:52 | 50.74080 | -126.79737 | 34267 ft | 393 kts | 317° |
| 2026-05-06 23:52 | 50.78384 | -126.85110 | 34283 ft | 393 kts | 316° |
| 2026-05-06 23:53 | 50.82657 | -126.90456 | 34278 ft | 393 kts | 316° |
| 2026-05-06 23:53 | 50.86944 | -126.95847 | 34276 ft | 393 kts | 316° |
| 2026-05-06 23:54 | 50.91231 | -127.01253 | 34269 ft | 393 kts | 316° |
| 2026-05-06 23:54 | 50.95511 | -127.06658 | 34263 ft | 393 kts | 316° |
| 2026-05-06 23:55 | 50.99765 | -127.12043 | 34272 ft | 393 kts | 316° |
| 2026-05-06 23:55 | 51.04034 | -127.17457 | 34267 ft | 393 kts | 316° |
| 2026-05-06 23:56 | 51.08311 | -127.22882 | 34270 ft | 393 kts | 316° |
| 2026-05-06 23:56 | 51.12577 | -127.28321 | 34269 ft | 392 kts | 316° |
| 2026-05-06 23:57 | 51.16816 | -127.33756 | 34285 ft | 392 kts | 316° |
| 2026-05-06 23:57 | 51.21080 | -127.39222 | 34283 ft | 392 kts | 316° |
| 2026-05-06 23:58 | 51.25340 | -127.44682 | 34268 ft | 392 kts | 315° |
| 2026-05-06 23:58 | 51.29580 | -127.50139 | 34269 ft | 393 kts | 315° |
| 2026-05-06 23:59 | 51.33846 | -127.55634 | 34274 ft | 393 kts | 315° |
| 2026-05-06 23:59 | 51.38102 | -127.61145 | 34299 ft | 393 kts | 315° |
| 2026-05-07 00:00 | 51.42328 | -127.66624 | 34301 ft | 392 kts | 315° |
| 2026-05-07 00:00 | 51.46569 | -127.72131 | 34297 ft | 392 kts | 315° |
| 2026-05-07 00:01 | 51.50802 | -127.77653 | 34292 ft | 392 kts | 315° |
| 2026-05-07 00:01 | 51.55011 | -127.83154 | 34294 ft | 392 kts | 315° |
| 2026-05-07 00:02 | 51.59257 | -127.88702 | 34308 ft | 392 kts | 315° |
| 2026-05-07 00:02 | 51.63463 | -127.94228 | 34297 ft | 392 kts | 315° |
| 2026-05-07 00:03 | 51.67695 | -127.99801 | 34315 ft | 391 kts | 315° |
| 2026-05-07 00:03 | 51.71885 | -128.05332 | 34309 ft | 390 kts | 315° |
| 2026-05-07 00:04 | 51.76091 | -128.10894 | 34305 ft | 389 kts | 315° |
| 2026-05-07 00:04 | 51.80254 | -128.16408 | 34318 ft | 388 kts | 314° |
| 2026-05-07 00:05 | 51.84439 | -128.21973 | 34313 ft | 388 kts | 314° |
| 2026-05-07 00:05 | 51.88581 | -128.27497 | 34305 ft | 388 kts | 314° |
| 2026-05-07 00:06 | 51.92768 | -128.33091 | 34292 ft | 388 kts | 314° |
| 2026-05-07 00:06 | 51.96934 | -128.38660 | 34319 ft | 388 kts | 314° |
| 2026-05-07 00:07 | 52.01076 | -128.44216 | 34307 ft | 388 kts | 314° |
| 2026-05-07 00:07 | 52.05239 | -128.49820 | 34303 ft | 388 kts | 314° |
| 2026-05-07 00:08 | 52.09362 | -128.55397 | 34296 ft | 388 kts | 314° |
| 2026-05-07 00:08 | 52.13524 | -128.61016 | 34294 ft | 388 kts | 314° |
| 2026-05-07 00:09 | 52.17676 | -128.66641 | 34287 ft | 388 kts | 314° |
| 2026-05-07 00:09 | 52.21796 | -128.72251 | 34286 ft | 388 kts | 314° |
| 2026-05-07 00:10 | 52.25968 | -128.77840 | 34288 ft | 389 kts | 315° |
| 2026-05-07 00:10 | 52.30271 | -128.83270 | 34287 ft | 389 kts | 316° |
| 2026-05-07 00:11 | 52.34563 | -128.88623 | 34282 ft | 389 kts | 315° |
| 2026-05-07 00:11 | 52.38848 | -128.94068 | 34301 ft | 389 kts | 315° |
| 2026-05-07 00:12 | 52.43093 | -128.99510 | 34298 ft | 389 kts | 315° |
| 2026-05-07 00:12 | 52.47370 | -129.04992 | 34294 ft | 389 kts | 315° |
| 2026-05-07 00:13 | 52.51626 | -129.10446 | 34294 ft | 389 kts | 315° |
| 2026-05-07 00:13 | 52.55904 | -129.15943 | 34294 ft | 389 kts | 315° |
| 2026-05-07 00:14 | 52.60145 | -129.21422 | 34304 ft | 389 kts | 314° |
| 2026-05-07 00:14 | 52.64413 | -129.26945 | 34296 ft | 389 kts | 314° |
| 2026-05-07 00:15 | 52.68659 | -129.32449 | 34291 ft | 389 kts | 314° |
| 2026-05-07 00:15 | 52.72927 | -129.37992 | 34287 ft | 389 kts | 314° |
| 2026-05-07 00:16 | 52.77157 | -129.43511 | 34277 ft | 389 kts | 314° |
| 2026-05-07 00:16 | 52.81406 | -129.49080 | 34303 ft | 390 kts | 314° |
| 2026-05-07 00:17 | 52.85661 | -129.54651 | 34293 ft | 390 kts | 314° |
| 2026-05-07 00:17 | 52.89891 | -129.60198 | 34279 ft | 390 kts | 314° |
| 2026-05-07 00:18 | 52.94153 | -129.65809 | 34273 ft | 389 kts | 314° |
| 2026-05-07 00:18 | 52.98376 | -129.71403 | 34282 ft | 389 kts | 314° |
| 2026-05-07 00:19 | 53.02592 | -129.76995 | 34285 ft | 390 kts | 313° |
| 2026-05-07 00:19 | 53.06851 | -129.82635 | 34286 ft | 390 kts | 313° |
| 2026-05-07 00:20 | 53.11100 | -129.88281 | 34285 ft | 391 kts | 313° |
| 2026-05-07 00:20 | 53.15321 | -129.93908 | 34284 ft | 391 kts | 313° |
| 2026-05-07 00:21 | 53.19577 | -129.99594 | 34321 ft | 391 kts | 313° |
| 2026-05-07 00:21 | 53.23827 | -130.05302 | 34316 ft | 392 kts | 313° |
| 2026-05-07 00:22 | 53.28050 | -130.10990 | 34307 ft | 392 kts | 313° |
| 2026-05-07 00:22 | 53.32306 | -130.16737 | 34300 ft | 392 kts | 313° |
| 2026-05-07 00:23 | 53.36544 | -130.22465 | 34290 ft | 392 kts | 313° |
| 2026-05-07 00:23 | 53.40799 | -130.28229 | 34305 ft | 392 kts | 313° |
| 2026-05-07 00:24 | 53.45050 | -130.34004 | 34318 ft | 392 kts | 313° |
| 2026-05-07 00:24 | 53.49272 | -130.39748 | 34312 ft | 392 kts | 313° |
| 2026-05-07 00:25 | 53.53505 | -130.45533 | 34298 ft | 391 kts | 313° |
| 2026-05-07 00:25 | 53.57708 | -130.51291 | 34296 ft | 391 kts | 313° |
| 2026-05-07 00:26 | 53.61936 | -130.57097 | 34318 ft | 391 kts | 312° |
| 2026-05-07 00:26 | 53.66127 | -130.62879 | 34292 ft | 391 kts | 312° |
| 2026-05-07 00:27 | 53.70350 | -130.68710 | 34293 ft | 391 kts | 312° |
| 2026-05-07 00:27 | 53.74551 | -130.74519 | 34288 ft | 392 kts | 312° |
| 2026-05-07 00:28 | 53.78773 | -130.80376 | 34299 ft | 392 kts | 312° |
| 2026-05-07 00:28 | 53.82280 | -130.85252 | 34341 ft | 392 kts | 312° |
| 2026-05-07 00:29 | 53.87188 | -130.92101 | 34328 ft | 393 kts | 312° |
| 2026-05-07 00:30 | 53.94900 | -131.02913 | 34318 ft | 393 kts | 312° |
| 2026-05-07 00:30 | 53.99128 | -131.08857 | 34318 ft | 393 kts | 312° |
| 2026-05-07 00:31 | 54.03328 | -131.14785 | 34347 ft | 393 kts | 312° |
| 2026-05-07 00:31 | 54.07549 | -131.20751 | 34326 ft | 394 kts | 312° |
| 2026-05-07 00:32 | 54.11756 | -131.26712 | 34315 ft | 395 kts | 312° |
| 2026-05-07 00:32 | 54.15991 | -131.32733 | 34313 ft | 395 kts | 312° |
| 2026-05-07 00:33 | 54.20198 | -131.38733 | 34318 ft | 395 kts | 311° |
| 2026-05-07 00:33 | 54.24428 | -131.44780 | 34318 ft | 396 kts | 311° |
| 2026-05-07 00:34 | 54.28629 | -131.50813 | 34315 ft | 396 kts | 311° |
| 2026-05-07 00:34 | 54.32832 | -131.56856 | 34316 ft | 396 kts | 311° |
| 2026-05-07 00:35 | 54.37052 | -131.62936 | 34321 ft | 396 kts | 311° |
| 2026-05-07 00:35 | 54.41274 | -131.69035 | 34322 ft | 396 kts | 311° |
| 2026-05-07 00:36 | 54.45461 | -131.75100 | 34350 ft | 396 kts | 311° |
| 2026-05-07 00:36 | 54.49679 | -131.81234 | 34325 ft | 397 kts | 311° |
| 2026-05-07 00:37 | 54.53910 | -131.87406 | 34311 ft | 398 kts | 311° |
| 2026-05-07 00:37 | 54.58107 | -131.93544 | 34314 ft | 398 kts | 311° |
| 2026-05-07 00:38 | 54.62345 | -131.99748 | 34306 ft | 398 kts | 311° |
| 2026-05-07 00:38 | 54.66548 | -132.05921 | 34329 ft | 399 kts | 311° |
| 2026-05-07 00:39 | 54.70775 | -132.12159 | 34309 ft | 399 kts | 311° |
| 2026-05-07 00:39 | 54.75013 | -132.18432 | 34291 ft | 400 kts | 311° |
| 2026-05-07 00:40 | 54.79231 | -132.24677 | 34289 ft | 400 kts | 311° |
| 2026-05-07 00:40 | 54.83480 | -132.30983 | 34293 ft | 401 kts | 311° |
| 2026-05-07 00:41 | 54.87690 | -132.37264 | 34328 ft | 401 kts | 311° |
| 2026-05-07 00:41 | 54.91906 | -132.43596 | 34306 ft | 402 kts | 311° |
| 2026-05-07 00:42 | 54.96146 | -132.49957 | 34293 ft | 403 kts | 311° |
| 2026-05-07 00:42 | 55.00401 | -132.56346 | 34289 ft | 403 kts | 311° |
| 2026-05-07 00:43 | 55.04649 | -132.62751 | 34293 ft | 403 kts | 311° |
| 2026-05-07 00:43 | 55.08893 | -132.69173 | 34335 ft | 403 kts | 311° |
| 2026-05-07 00:44 | 55.13097 | -132.75541 | 34320 ft | 402 kts | 311° |
| 2026-05-07 00:44 | 55.17318 | -132.81959 | 34311 ft | 402 kts | 311° |
| 2026-05-07 00:45 | 55.21544 | -132.88403 | 34308 ft | 402 kts | 311° |
| 2026-05-07 00:45 | 55.25735 | -132.94824 | 34304 ft | 402 kts | 311° |
| 2026-05-07 00:46 | 55.29965 | -133.01310 | 34330 ft | 402 kts | 311° |
| 2026-05-07 00:46 | 55.34146 | -133.07754 | 34313 ft | 402 kts | 310° |
| 2026-05-07 00:47 | 55.38358 | -133.14273 | 34314 ft | 403 kts | 310° |
| 2026-05-07 00:47 | 55.42547 | -133.20759 | 34299 ft | 402 kts | 311° |
| 2026-05-07 00:48 | 55.46753 | -133.27277 | 34302 ft | 402 kts | 310° |
| 2026-05-07 00:48 | 55.50948 | -133.33808 | 34347 ft | 402 kts | 310° |
| 2026-05-07 00:49 | 55.55151 | -133.40371 | 34339 ft | 402 kts | 310° |
| 2026-05-07 00:49 | 55.59345 | -133.46938 | 34329 ft | 402 kts | 310° |
| 2026-05-07 00:50 | 55.63502 | -133.53481 | 34320 ft | 402 kts | 310° |
| 2026-05-07 00:50 | 55.67687 | -133.60090 | 34315 ft | 402 kts | 310° |
| 2026-05-07 00:51 | 55.71851 | -133.66672 | 34342 ft | 402 kts | 310° |
| 2026-05-07 00:51 | 55.76029 | -133.73298 | 34327 ft | 402 kts | 310° |
| 2026-05-07 00:52 | 55.80217 | -133.79952 | 34319 ft | 402 kts | 310° |
| 2026-05-07 00:52 | 55.84368 | -133.86571 | 34315 ft | 403 kts | 309° |
| 2026-05-07 00:53 | 55.88548 | -133.93257 | 34310 ft | 403 kts | 309° |
| 2026-05-07 00:53 | 55.92696 | -133.99928 | 34353 ft | 403 kts | 309° |
| 2026-05-07 00:54 | 55.96843 | -134.06603 | 34340 ft | 403 kts | 309° |
| 2026-05-07 00:54 | 56.01009 | -134.13328 | 34332 ft | 403 kts | 309° |
| 2026-05-07 00:55 | 56.05164 | -134.20058 | 34326 ft | 403 kts | 309° |
| 2026-05-07 00:55 | 56.09295 | -134.26763 | 34321 ft | 402 kts | 309° |
| 2026-05-07 00:56 | 56.13442 | -134.33537 | 34315 ft | 402 kts | 309° |
| 2026-05-07 00:56 | 56.17566 | -134.40279 | 34347 ft | 402 kts | 309° |
| 2026-05-07 00:57 | 56.21717 | -134.47070 | 34327 ft | 402 kts | 309° |
| 2026-05-07 00:57 | 56.25826 | -134.53826 | 34324 ft | 402 kts | 308° |
| 2026-05-07 00:58 | 56.29960 | -134.60653 | 34318 ft | 402 kts | 308° |
| 2026-05-07 00:58 | 56.34054 | -134.67434 | 34319 ft | 402 kts | 308° |
| 2026-05-07 00:59 | 56.40233 | -134.77688 | 34313 ft | 402 kts | 308° |
| 2026-05-07 01:00 | 56.44332 | -134.84516 | 34312 ft | 402 kts | 308° |
| 2026-05-07 01:00 | 56.48441 | -134.91395 | 34310 ft | 402 kts | 308° |
| 2026-05-07 01:01 | 56.52541 | -134.98277 | 34317 ft | 402 kts | 308° |
| 2026-05-07 01:01 | 56.56650 | -135.05185 | 34356 ft | 402 kts | 308° |
| 2026-05-07 01:02 | 56.60725 | -135.12069 | 34338 ft | 401 kts | 308° |
| 2026-05-07 01:02 | 56.64820 | -135.19010 | 34326 ft | 401 kts | 308° |
| 2026-05-07 01:03 | 56.68882 | -135.25905 | 34320 ft | 401 kts | 308° |
| 2026-05-07 01:03 | 56.72962 | -135.32854 | 34328 ft | 401 kts | 308° |
| 2026-05-07 01:04 | 56.77019 | -135.39794 | 34347 ft | 401 kts | 308° |
| 2026-05-07 01:04 | 56.81077 | -135.46748 | 34315 ft | 400 kts | 307° |
| 2026-05-07 01:05 | 56.85099 | -135.53674 | 34304 ft | 399 kts | 306° |
| 2026-05-07 01:05 | 56.88636 | -135.61319 | 34302 ft | 391 kts | 300° |
| 2026-05-07 01:06 | 56.91986 | -135.69101 | 34299 ft | 391 kts | 300° |
| 2026-05-07 01:06 | 56.95349 | -135.76945 | 34306 ft | 391 kts | 300° |
| 2026-05-07 01:07 | 56.98721 | -135.84821 | 34323 ft | 392 kts | 300° |
| 2026-05-07 01:07 | 57.02086 | -135.92716 | 34299 ft | 393 kts | 300° |
| 2026-05-07 01:08 | 57.05437 | -136.00595 | 34287 ft | 393 kts | 300° |
| 2026-05-07 01:08 | 57.08808 | -136.08539 | 34286 ft | 394 kts | 300° |
| 2026-05-07 01:09 | 57.12160 | -136.16467 | 34281 ft | 394 kts | 300° |
| 2026-05-07 01:09 | 57.15524 | -136.24448 | 34330 ft | 394 kts | 300° |
| 2026-05-07 01:10 | 57.18872 | -136.32428 | 34293 ft | 395 kts | 300° |
| 2026-05-07 01:10 | 57.22247 | -136.40492 | 34282 ft | 396 kts | 300° |
| 2026-05-07 01:11 | 57.25615 | -136.48575 | 34279 ft | 396 kts | 300° |
| 2026-05-07 01:11 | 57.28957 | -136.56628 | 34276 ft | 397 kts | 300° |
| 2026-05-07 01:12 | 57.32301 | -136.64706 | 34275 ft | 397 kts | 299° |
| 2026-05-07 01:12 | 57.35658 | -136.72847 | 34300 ft | 398 kts | 300° |
| 2026-05-07 01:13 | 57.39030 | -136.81039 | 34273 ft | 399 kts | 300° |
| 2026-05-07 01:13 | 57.42382 | -136.89221 | 34261 ft | 400 kts | 300° |
| 2026-05-07 01:14 | 57.45753 | -136.97470 | 34261 ft | 400 kts | 300° |
| 2026-05-07 01:14 | 57.49094 | -137.05686 | 34266 ft | 400 kts | 299° |
| 2026-05-07 01:15 | 57.52453 | -137.13969 | 34296 ft | 400 kts | 300° |
| 2026-05-07 01:15 | 57.55796 | -137.22238 | 34273 ft | 401 kts | 299° |
| 2026-05-07 01:16 | 57.59161 | -137.30579 | 34263 ft | 402 kts | 299° |
| 2026-05-07 01:16 | 57.62502 | -137.38897 | 34255 ft | 402 kts | 299° |
| 2026-05-07 01:17 | 57.65860 | -137.47277 | 34257 ft | 402 kts | 299° |
| 2026-05-07 01:17 | 57.69184 | -137.55618 | 34260 ft | 402 kts | 299° |
| 2026-05-07 01:18 | 57.71962 | -137.62611 | 34278 ft | 403 kts | 299° |
| 2026-05-07 01:18 | 57.75303 | -137.71038 | 34262 ft | 403 kts | 299° |
| 2026-05-07 01:19 | 57.78641 | -137.79506 | 34251 ft | 404 kts | 299° |
| 2026-05-07 01:19 | 57.81969 | -137.87951 | 34256 ft | 404 kts | 299° |
| 2026-05-07 01:20 | 57.85305 | -137.96469 | 34252 ft | 404 kts | 299° |
| 2026-05-07 01:20 | 57.88637 | -138.05005 | 34273 ft | 404 kts | 299° |
| 2026-05-07 01:21 | 57.91947 | -138.13521 | 34246 ft | 405 kts | 299° |
| 2026-05-07 01:21 | 57.95271 | -138.22092 | 34243 ft | 405 kts | 299° |
| 2026-05-07 01:22 | 57.98596 | -138.30681 | 34237 ft | 405 kts | 299° |
| 2026-05-07 01:22 | 58.01908 | -138.39257 | 34238 ft | 405 kts | 299° |
| 2026-05-07 01:23 | 58.05204 | -138.47859 | 34239 ft | 405 kts | 299° |
| 2026-05-07 01:23 | 58.08502 | -138.56503 | 34267 ft | 406 kts | 299° |
| 2026-05-07 01:24 | 58.11791 | -138.65140 | 34256 ft | 406 kts | 299° |
| 2026-05-07 01:24 | 58.15097 | -138.73851 | 34518 ft | 408 kts | 299° |
| 2026-05-07 01:24 | 58.16758 | -138.78231 | 34747 ft | 409 kts | 299° |
| 2026-05-07 01:25 | 58.18414 | -138.82620 | 34973 ft | 410 kts | 299° |
| 2026-05-07 01:25 | 58.20076 | -138.87036 | 35188 ft | 411 kts | 299° |
| 2026-05-07 01:25 | 58.21720 | -138.91406 | 35394 ft | 412 kts | 299° |
| 2026-05-07 01:25 | 58.23385 | -138.95843 | 35615 ft | 413 kts | 299° |
| 2026-05-07 01:26 | 58.25058 | -139.00316 | 35820 ft | 414 kts | 299° |
| 2026-05-07 01:26 | 58.26735 | -139.04804 | 36020 ft | 415 kts | 300° |
| 2026-05-07 01:26 | 58.28389 | -139.09241 | 36178 ft | 417 kts | 300° |
| 2026-05-07 01:27 | 58.31755 | -139.18277 | 36220 ft | 418 kts | 300° |
| 2026-05-07 01:27 | 58.35126 | -139.27323 | 36222 ft | 418 kts | 300° |
| 2026-05-07 01:28 | 58.38456 | -139.36336 | 36224 ft | 418 kts | 299° |
| 2026-05-07 01:28 | 58.41806 | -139.45419 | 36218 ft | 418 kts | 300° |
| 2026-05-07 01:29 | 58.45116 | -139.54474 | 36217 ft | 418 kts | 299° |
| 2026-05-07 01:29 | 58.48447 | -139.63607 | 36218 ft | 418 kts | 300° |
| 2026-05-07 01:30 | 58.51773 | -139.72703 | 36220 ft | 418 kts | 299° |
| 2026-05-07 01:30 | 58.55094 | -139.81845 | 36222 ft | 418 kts | 299° |
| 2026-05-07 01:31 | 58.58384 | -139.90986 | 36218 ft | 418 kts | 299° |
| 2026-05-07 01:31 | 58.61686 | -140.00177 | 36235 ft | 419 kts | 299° |
| 2026-05-07 01:32 | 58.65008 | -140.09414 | 36221 ft | 419 kts | 299° |
| 2026-05-07 01:32 | 58.68292 | -140.18629 | 36216 ft | 419 kts | 299° |
| 2026-05-07 01:33 | 58.71584 | -140.27895 | 36206 ft | 420 kts | 299° |
| 2026-05-07 01:33 | 58.74879 | -140.37184 | 36206 ft | 419 kts | 299° |
| 2026-05-07 01:34 | 58.78145 | -140.46433 | 36222 ft | 420 kts | 299° |
| 2026-05-07 01:34 | 58.81399 | -140.55816 | 36205 ft | 420 kts | 297° |
| 2026-05-07 01:35 | 58.84451 | -140.65431 | 36198 ft | 419 kts | 296° |
| 2026-05-07 01:35 | 58.87412 | -140.75153 | 36198 ft | 419 kts | 296° |
| 2026-05-07 01:36 | 58.90375 | -140.84805 | 36192 ft | 420 kts | 296° |
| 2026-05-07 01:36 | 58.93381 | -140.94509 | 36212 ft | 420 kts | 296° |
| 2026-05-07 01:37 | 58.96388 | -141.04253 | 36197 ft | 421 kts | 296° |
| 2026-05-07 01:37 | 58.99381 | -141.13990 | 36192 ft | 421 kts | 296° |
| 2026-05-07 01:38 | 59.02380 | -141.23793 | 36184 ft | 421 kts | 296° |
| 2026-05-07 01:38 | 59.05357 | -141.33547 | 36185 ft | 421 kts | 296° |
| 2026-05-07 01:39 | 59.08318 | -141.43327 | 36186 ft | 421 kts | 296° |
| 2026-05-07 01:39 | 59.11283 | -141.53184 | 36185 ft | 422 kts | 296° |
| 2026-05-07 01:40 | 59.14249 | -141.63076 | 36185 ft | 422 kts | 296° |
| 2026-05-07 01:40 | 59.17198 | -141.72921 | 36172 ft | 423 kts | 296° |
| 2026-05-07 01:41 | 59.20155 | -141.82845 | 36176 ft | 423 kts | 296° |
| 2026-05-07 01:41 | 59.23102 | -141.92736 | 36175 ft | 423 kts | 296° |
| 2026-05-07 01:42 | 59.26041 | -142.02691 | 36195 ft | 423 kts | 296° |
| 2026-05-07 01:42 | 59.28982 | -142.12704 | 36184 ft | 424 kts | 296° |
| 2026-05-07 01:43 | 59.31913 | -142.22742 | 36178 ft | 424 kts | 296° |
| 2026-05-07 01:43 | 59.34828 | -142.32706 | 36166 ft | 424 kts | 296° |
| 2026-05-07 01:44 | 59.37751 | -142.42751 | 36162 ft | 424 kts | 296° |
| 2026-05-07 01:44 | 59.40666 | -142.52843 | 36179 ft | 424 kts | 296° |
| 2026-05-07 01:45 | 59.43553 | -142.62902 | 36172 ft | 424 kts | 295° |
| 2026-05-07 01:45 | 59.46443 | -142.73045 | 36162 ft | 424 kts | 295° |
| 2026-05-07 01:46 | 59.49349 | -142.83185 | 36155 ft | 424 kts | 295° |
| 2026-05-07 01:46 | 59.52239 | -142.93320 | 36154 ft | 424 kts | 295° |
| 2026-05-07 01:47 | 59.55101 | -143.03434 | 36153 ft | 424 kts | 295° |
| 2026-05-07 01:47 | 59.57973 | -143.13625 | 36171 ft | 425 kts | 295° |
| 2026-05-07 01:48 | 59.60825 | -143.23815 | 36161 ft | 425 kts | 295° |
| 2026-05-07 01:48 | 59.63677 | -143.34078 | 36154 ft | 425 kts | 295° |
| 2026-05-07 01:49 | 59.66523 | -143.44341 | 36142 ft | 425 kts | 295° |
| 2026-05-07 01:49 | 59.69348 | -143.54551 | 36137 ft | 425 kts | 295° |
| 2026-05-07 01:50 | 59.72189 | -143.64858 | 36157 ft | 425 kts | 295° |
| 2026-05-07 01:50 | 59.75023 | -143.75191 | 36149 ft | 426 kts | 295° |
| 2026-05-07 01:51 | 59.77828 | -143.85482 | 36142 ft | 426 kts | 295° |
| 2026-05-07 01:51 | 59.80646 | -143.95859 | 36143 ft | 426 kts | 295° |
| 2026-05-07 01:52 | 59.83439 | -144.06198 | 36137 ft | 426 kts | 295° |
| 2026-05-07 01:52 | 59.86244 | -144.16609 | 36132 ft | 426 kts | 295° |
| 2026-05-07 01:53 | 59.89021 | -144.26970 | 36135 ft | 426 kts | 295° |
| 2026-05-07 01:53 | 59.91807 | -144.37403 | 36135 ft | 426 kts | 294° |
| 2026-05-07 01:54 | 59.94581 | -144.47881 | 36130 ft | 426 kts | 294° |
| 2026-05-07 01:54 | 59.97337 | -144.58356 | 36132 ft | 426 kts | 294° |
| 2026-05-07 01:55 | 60.00083 | -144.68801 | 36132 ft | 425 kts | 294° |
| 2026-05-07 01:55 | 60.02820 | -144.79252 | 36148 ft | 426 kts | 294° |
| 2026-05-07 01:56 | 60.05566 | -144.89803 | 36137 ft | 426 kts | 294° |
| 2026-05-07 01:56 | 60.08279 | -145.00299 | 36127 ft | 426 kts | 294° |
| 2026-05-07 01:57 | 60.11013 | -145.10901 | 36128 ft | 426 kts | 294° |
| 2026-05-07 01:57 | 60.13734 | -145.21484 | 36124 ft | 426 kts | 294° |
| 2026-05-07 01:58 | 60.16431 | -145.32012 | 36145 ft | 426 kts | 294° |
| 2026-05-07 01:58 | 60.19135 | -145.42659 | 36129 ft | 427 kts | 294° |
| 2026-05-07 01:59 | 60.21829 | -145.53308 | 36124 ft | 427 kts | 294° |
| 2026-05-07 01:59 | 60.24503 | -145.63920 | 36117 ft | 428 kts | 294° |
| 2026-05-07 02:00 | 60.27192 | -145.74644 | 36113 ft | 428 kts | 294° |
| 2026-05-07 02:00 | 60.29864 | -145.85360 | 36107 ft | 428 kts | 293° |
| 2026-05-07 02:01 | 60.32511 | -145.96054 | 36123 ft | 428 kts | 294° |
| 2026-05-07 02:01 | 60.35169 | -146.06816 | 36116 ft | 428 kts | 294° |
| 2026-05-07 02:02 | 60.37834 | -146.17623 | 36118 ft | 429 kts | 294° |
| 2026-05-07 02:02 | 60.40493 | -146.28448 | 36116 ft | 429 kts | 293° |
| 2026-05-07 02:03 | 60.43121 | -146.39253 | 36115 ft | 429 kts | 293° |
| 2026-05-07 02:03 | 60.45732 | -146.50087 | 36134 ft | 429 kts | 293° |
| 2026-05-07 02:04 | 60.48475 | -146.60857 | 36127 ft | 432 kts | 300° |
| 2026-05-07 02:04 | 60.52046 | -146.70644 | 36123 ft | 434 kts | 303° |
| 2026-05-07 02:05 | 60.55674 | -146.80459 | 36112 ft | 434 kts | 303° |
| 2026-05-07 02:05 | 60.59266 | -146.90272 | 36111 ft | 434 kts | 303° |
| 2026-05-07 02:06 | 60.62283 | -146.98558 | 36113 ft | 434 kts | 303° |
| 2026-05-07 02:06 | 60.65858 | -147.08431 | 36136 ft | 434 kts | 303° |
| 2026-05-07 02:07 | 60.69399 | -147.18439 | 36129 ft | 435 kts | 302° |
| 2026-05-07 02:07 | 60.74656 | -147.33522 | 36131 ft | 435 kts | 302° |
| 2026-05-07 02:08 | 60.78150 | -147.43558 | 36131 ft | 435 kts | 302° |
| 2026-05-07 02:08 | 60.81665 | -147.53680 | 36145 ft | 435 kts | 302° |
| 2026-05-07 02:09 | 60.85154 | -147.63777 | 36129 ft | 435 kts | 302° |
| 2026-05-07 02:09 | 60.88655 | -147.73954 | 36128 ft | 436 kts | 302° |
| 2026-05-07 02:10 | 60.92148 | -147.84131 | 36111 ft | 436 kts | 302° |
| 2026-05-07 02:10 | 60.95633 | -147.94345 | 36116 ft | 436 kts | 302° |
| 2026-05-07 02:11 | 60.99098 | -148.04553 | 36113 ft | 436 kts | 302° |
| 2026-05-07 02:11 | 61.02565 | -148.14824 | 35830 ft | 435 kts | 302° |
| 2026-05-07 02:12 | 61.04313 | -148.20004 | 34828 ft | 443 kts | 302° |
| 2026-05-07 02:12 | 61.06075 | -148.25241 | 34022 ft | 445 kts | 301° |
| 2026-05-07 02:12 | 61.07813 | -148.30410 | 32978 ft | 441 kts | 301° |
| 2026-05-07 02:12 | 61.09558 | -148.35611 | 31703 ft | 439 kts | 301° |
| 2026-05-07 02:13 | 61.11293 | -148.40800 | 30443 ft | 437 kts | 301° |
| 2026-05-07 02:13 | 61.12998 | -148.45976 | 29035 ft | 431 kts | 298° |
| 2026-05-07 02:13 | 61.14415 | -148.51421 | 27435 ft | 427 kts | 291° |
| 2026-05-07 02:13 | 61.15474 | -148.57114 | 25704 ft | 429 kts | 288° |
| 2026-05-07 02:14 | 61.16494 | -148.62971 | 23923 ft | 435 kts | 288° |
| 2026-05-07 02:14 | 61.17527 | -148.68882 | 22367 ft | 434 kts | 288° |
| 2026-05-07 02:14 | 61.18549 | -148.74712 | 21026 ft | 426 kts | 288° |
| 2026-05-07 02:14 | 61.19558 | -148.80471 | 19633 ft | 421 kts | 288° |
| 2026-05-07 02:15 | 61.20541 | -148.86089 | 18330 ft | 417 kts | 288° |
| 2026-05-07 02:15 | 61.21528 | -148.91747 | 16904 ft | 414 kts | 288° |
| 2026-05-07 02:15 | 61.22489 | -148.97279 | 16237 ft | 396 kts | 288° |
| 2026-05-07 02:15 | 61.23397 | -149.02531 | 15650 ft | 378 kts | 288° |
| 2026-05-07 02:16 | 61.24218 | -149.07726 | 15084 ft | 377 kts | 283° |
| 2026-05-07 02:16 | 61.24696 | -149.13105 | 14234 ft | 389 kts | 276° |
| 2026-05-07 02:16 | 61.25025 | -149.18706 | 13106 ft | 389 kts | 276° |
| 2026-05-07 02:16 | 61.25350 | -149.24277 | 11994 ft | 384 kts | 276° |
| 2026-05-07 02:17 | 61.25663 | -149.29588 | 11370 ft | 353 kts | 276° |
| 2026-05-07 02:17 | 61.25952 | -149.34483 | 11126 ft | 338 kts | 275° |
| 2026-05-07 02:17 | 61.26230 | -149.39232 | 10996 ft | 324 kts | 275° |
| 2026-05-07 02:17 | 61.26499 | -149.43796 | 10867 ft | 310 kts | 275° |
| 2026-05-07 02:18 | 61.26756 | -149.48169 | 10734 ft | 298 kts | 275° |
| 2026-05-07 02:18 | 61.27001 | -149.52363 | 10576 ft | 287 kts | 275° |
| 2026-05-07 02:18 | 61.27231 | -149.56392 | 10316 ft | 281 kts | 274° |
| 2026-05-07 02:18 | 61.27456 | -149.60416 | 10064 ft | 278 kts | 274° |
| 2026-05-07 02:19 | 61.27680 | -149.64404 | 9875 ft | 277 kts | 274° |
| 2026-05-07 02:19 | 61.27914 | -149.68396 | 9738 ft | 278 kts | 277° |
| 2026-05-07 02:19 | 61.28437 | -149.72247 | 9597 ft | 280 kts | 290° |
| 2026-05-07 02:19 | 61.29364 | -149.75807 | 9461 ft | 276 kts | 299° |
| 2026-05-07 02:20 | 61.30353 | -149.79135 | 9306 ft | 264 kts | 298° |
| 2026-05-07 02:20 | 61.31295 | -149.82333 | 9176 ft | 253 kts | 298° |
| 2026-05-07 02:20 | 61.32195 | -149.85408 | 9034 ft | 243 kts | 298° |
| 2026-05-07 02:20 | 61.33055 | -149.88351 | 8894 ft | 233 kts | 298° |
| 2026-05-07 02:21 | 61.33875 | -149.91157 | 8717 ft | 226 kts | 298° |
| 2026-05-07 02:21 | 61.34802 | -149.93794 | 8427 ft | 226 kts | 312° |
| 2026-05-07 02:21 | 61.36047 | -149.95807 | 8106 ft | 228 kts | 329° |
| 2026-05-07 02:21 | 61.37530 | -149.97025 | 7795 ft | 230 kts | 344° |
| 2026-05-07 02:22 | 61.39072 | -149.97911 | 7488 ft | 230 kts | 342° |
| 2026-05-07 02:22 | 61.40601 | -149.98863 | 7194 ft | 229 kts | 341° |
| 2026-05-07 02:22 | 61.42107 | -149.99824 | 6915 ft | 228 kts | 341° |
| 2026-05-07 02:22 | 61.43608 | -150.00857 | 6689 ft | 226 kts | 332° |
| 2026-05-07 02:23 | 61.44852 | -150.03101 | 6510 ft | 241 kts | 299° |
| 2026-05-07 02:23 | 61.45345 | -150.06322 | 6298 ft | 228 kts | 267° |
| 2026-05-07 02:23 | 61.45069 | -150.09511 | 5765 ft | 231 kts | 242° |
| 2026-05-07 02:23 | 61.44089 | -150.12119 | 5398 ft | 227 kts | 215° |
| 2026-05-07 02:24 | 61.42682 | -150.13481 | 5172 ft | 220 kts | 190° |
| 2026-05-07 02:24 | 61.41171 | -150.13435 | 4907 ft | 217 kts | 167° |
| 2026-05-07 02:24 | 61.39738 | -150.12630 | 4603 ft | 216 kts | 165° |
| 2026-05-07 02:24 | 61.38299 | -150.11800 | 4311 ft | 212 kts | 165° |
| 2026-05-07 02:25 | 61.36880 | -150.10991 | 3971 ft | 208 kts | 165° |
| 2026-05-07 02:25 | 61.35521 | -150.10220 | 3682 ft | 195 kts | 166° |
| 2026-05-07 02:25 | 61.34254 | -150.09502 | 3392 ft | 183 kts | 166° |
| 2026-05-07 02:25 | 61.33063 | -150.08828 | 3124 ft | 176 kts | 166° |
| 2026-05-07 02:26 | 61.31877 | -150.08158 | 2868 ft | 173 kts | 166° |
| 2026-05-07 02:26 | 61.30728 | -150.07509 | 2609 ft | 172 kts | 166° |
| 2026-05-07 02:26 | 61.29584 | -150.06863 | 2359 ft | 164 kts | 166° |
| 2026-05-07 02:26 | 61.28538 | -150.06272 | 2130 ft | 150 kts | 166° |
| 2026-05-07 02:27 | 61.27561 | -150.05721 | 1914 ft | 144 kts | 166° |
| 2026-05-07 02:27 | 61.26631 | -150.05197 | 1713 ft | 135 kts | 166° |
| 2026-05-07 02:27 | 61.25735 | -150.04693 | 1505 ft | 132 kts | 166° |
| 2026-05-07 02:27 | 61.24855 | -150.04198 | 1310 ft | 131 kts | 166° |
| 2026-05-07 02:28 | 61.23974 | -150.03703 | 1109 ft | 131 kts | 166° |
| 2026-05-07 02:28 | 61.23091 | -150.03206 | 909 ft | 132 kts | 166° |
| 2026-05-07 02:28 | 61.22201 | -150.02706 | 703 ft | 132 kts | 167° |
| 2026-05-07 02:28 | 61.21316 | -150.02209 | 511 ft | 132 kts | 167° |
| 2026-05-07 02:29 | 61.20431 | -150.01713 | 314 ft | 134 kts | 166° |
| 2026-05-07 02:29 | 61.19522 | -150.01203 | 157 ft | 131 kts | 165° |
| 2026-05-07 02:29 | 61.18782 | -150.00787 | 137 ft | 82 kts | 165° |
| 2026-05-07 02:29 | 61.18435 | -150.00601 | 127 ft | 33 kts | 163° |
| 2026-05-07 02:30 | 61.18229 | -150.00477 | 124 ft | 28 kts | 165° |
| 2026-05-07 02:30 | 61.18066 | -150.00385 | 124 ft | 22 kts | 164° |
| 2026-05-07 02:30 | 61.17938 | -150.00274 | 119 ft | 19 kts | 151° |
| 2026-05-07 02:30 | 61.17842 | -150.00125 | 115 ft | 16 kts | 136° |
| 2026-05-07 02:31 | 61.17803 | -150.00042 | 118 ft | 0 kts | 133° |
| 2026-05-07 02:31 | 61.17803 | -150.00041 | 118 ft | 0 kts | 131° |
| 2026-05-07 02:31 | 61.17807 | -149.99978 | 119 ft | 13 kts | 53° |
| 2026-05-07 02:31 | 61.17885 | -150.00022 | 117 ft | 10 kts | 345° |
| 2026-05-07 02:32 | 61.17902 | -150.00018 | 116 ft | 0 kts | 14° |
| 2026-05-07 02:32 | 61.17903 | -150.00016 | 117 ft | 2 kts | 19° |
| 2026-05-07 02:32 | 61.17910 | -149.99919 | 116 ft | 11 kts | 96° |
| 2026-05-07 02:32 | 61.17891 | -149.99736 | 106 ft | 11 kts | 135° |
| 2026-05-07 02:33 | 61.17841 | -149.99667 | 107 ft | 6 kts | 146° |
| 2026-05-07 02:33 | 61.17822 | -149.99640 | 109 ft | 1 kts | 146° |
| 2026-05-07 02:33 | 61.17803 | -149.99615 | 109 ft | 9 kts | 146° |
| 2026-05-07 02:33 | 61.17746 | -149.99551 | 110 ft | 7 kts | 158° |
| 2026-05-07 02:34 | 61.17720 | -149.99526 | 109 ft | 3 kts | 149° |
| 2026-05-07 02:34 | 61.17701 | -149.99422 | 109 ft | 10 kts | 91° |
| 2026-05-07 02:34 | 61.17701 | -149.99274 | 104 ft | 11 kts | 106° |
| 2026-05-07 02:34 | 61.17666 | -149.99202 | 102 ft | 0 kts | 147° |
| 2026-05-07 02:35 | 61.17658 | -149.99167 | 101 ft | 13 kts | 109° |
| 2026-05-07 02:35 | 61.17643 | -149.98991 | 103 ft | 4 kts | 98° |
| 2026-05-07 02:35 | 61.17642 | -149.98978 | 103 ft | 3 kts | 104° |
| 2026-05-07 02:36 | 61.17637 | -149.98960 | 102 ft | 0 kts | 119° |
| 2026-05-07 02:36 | 61.17620 | -149.98899 | 103 ft | 9 kts | 119° |
| 2026-05-07 02:37 | 61.17615 | -149.98884 | 103 ft | 1 kts | 133° |
| 2026-05-07 02:37 | 61.17609 | -149.98882 | 103 ft | 0 kts | 161° |
| 2026-05-07 02:37 | 61.17603 | -149.98878 | 103 ft | 1 kts | 159° |
| 2026-05-07 02:37 | 61.17580 | -149.98833 | 103 ft | 7 kts | 127° |
| 2026-05-07 02:38 | 61.17565 | -149.98767 | 105 ft | 4 kts | 109° |
| 2026-05-07 02:38 | 61.17561 | -149.98744 | 105 ft | 2 kts | 109° |
| 2026-05-07 02:38 | 61.17544 | -149.98643 | 105 ft | 9 kts | 109° |
| 2026-05-07 02:38 | 61.17536 | -149.98566 | 108 ft | 2 kts | 83° |
| 2026-05-07 02:39 | 61.17536 | -149.98560 | 108 ft | 1 kts | 79° |
| 2026-05-07 02:39 | 61.17538 | -149.98504 | 109 ft | 3 kts | 90° |
| 2026-05-07 02:39 | 61.17538 | -149.98490 | 110 ft | 3 kts | 93° |
| 2026-05-07 02:39 | 61.17536 | -149.98440 | 110 ft | 0 kts | 93° |